KPPO

La Porte Municipal Airport

La Porte, Indiana, USA
METAR KPPO 121815Z AUTO 21013G23KT 10SM SCT025 BKN029 06/00 A2975 RMK AO2 T00610004
Observed Flight Rules
Dec-12 @ 18:15 UTC (34 minutes ago) Marginal Visual Flight Rules
Wind Visibility Clouds
210° at 13 knots
 Gusting to 23 knots
10 miles
  • Scattered at 2,500' AGL
  • Broken at 2,900' AGL
Temperatures Readings
Current 6°C / 43°F
Dewpoint 0°C / 32°F
Humidity 66%
Altimeter 29.75" Hg
Pressure 1007 hPa
Elevation 248
METAR KPPO 121815Z AUTO 21013G23KT 10SM SCT025 BKN029 06/00 A2975 RMK AO2 T00610004
Observed Flight Rules
Dec-12 @ 18:15 UTC
(34 minutes ago)
MVFR
Wind Visibility
210° at 13 knots
 Gusting to 23 knots
10 miles
Clouds
  • Scattered at 2,500' AGL
  • Broken at 2,900' AGL
Temperature Dewpoint
6°C / 43°F 0°C / 32°F
Humidity Altimeter Pressure
66% 29.75" Hg 1007 hPa